createdAt,value
2023-07-09T00:00:09.369Z,20.62
2023-07-09T00:02:35.689Z,20.55
2023-07-09T00:05:02.022Z,20.46
2023-07-09T00:07:28.198Z,20.43
2023-07-09T00:09:54.429Z,20.44
2023-07-09T00:12:20.676Z,20.37
2023-07-09T00:14:46.917Z,20.34
2023-07-09T00:17:13.176Z,20.29
2023-07-09T00:19:39.380Z,20.26
2023-07-09T00:22:05.608Z,20.23
2023-07-09T00:24:31.832Z,20.19
2023-07-09T00:26:58.074Z,20.15
2023-07-09T00:29:24.343Z,20.09
2023-07-09T00:31:50.764Z,20.04
2023-07-09T00:34:17.097Z,20.01
2023-07-09T00:36:43.344Z,19.94
2023-07-09T00:39:09.582Z,19.90
2023-07-09T00:41:35.828Z,19.89
2023-07-09T00:44:02.046Z,19.80
2023-07-09T00:46:28.272Z,19.84
2023-07-09T00:48:54.510Z,19.78
2023-07-09T00:51:20.736Z,19.73
2023-07-09T00:53:47.194Z,19.77
2023-07-09T00:56:13.512Z,19.78
2023-07-09T00:58:39.738Z,19.77
2023-07-09T01:01:05.981Z,19.73
2023-07-09T01:03:32.221Z,19.67
2023-07-09T01:05:58.474Z,19.67
2023-07-09T01:08:24.684Z,19.68
2023-07-09T01:10:50.878Z,19.68
2023-07-09T01:13:17.047Z,19.62
2023-07-09T01:15:43.303Z,19.60
2023-07-09T01:18:09.571Z,19.63
2023-07-09T01:20:35.830Z,19.62
2023-07-09T01:23:02.197Z,19.65
2023-07-09T01:25:28.444Z,19.66
2023-07-09T01:27:54.700Z,19.62
2023-07-09T01:30:20.897Z,19.63
2023-07-09T01:32:47.190Z,19.69
2023-07-09T01:35:13.628Z,19.62
2023-07-09T01:37:39.866Z,19.56
2023-07-09T01:40:10.922Z,19.54
2023-07-09T01:42:42.951Z,19.54
2023-07-09T01:45:09.176Z,19.54
2023-07-09T01:47:35.453Z,19.55
2023-07-09T01:50:01.653Z,19.54
2023-07-09T01:52:27.841Z,19.48
2023-07-09T01:54:54.092Z,19.54
2023-07-09T01:57:20.328Z,19.52
2023-07-09T01:59:46.574Z,19.49
2023-07-09T02:02:12.812Z,19.46
2023-07-09T02:04:39.022Z,19.42
2023-07-09T02:07:05.283Z,19.40
2023-07-09T02:09:31.530Z,19.30
2023-07-09T02:11:57.744Z,19.27
2023-07-09T02:14:24.000Z,19.16
2023-07-09T02:16:50.247Z,19.13
2023-07-09T02:19:16.526Z,19.09
2023-07-09T02:21:42.731Z,19.02
2023-07-09T02:24:08.993Z,18.95
2023-07-09T02:26:35.310Z,18.96
2023-07-09T02:29:01.603Z,18.96
2023-07-09T02:31:27.933Z,18.89
2023-07-09T02:33:54.164Z,18.87
2023-07-09T02:36:20.395Z,18.87
2023-07-09T02:38:46.589Z,18.83
2023-07-09T02:41:12.781Z,18.82
2023-07-09T02:43:38.979Z,18.80
2023-07-09T02:46:05.385Z,18.77
2023-07-09T02:48:31.775Z,18.75
2023-07-09T02:50:58.247Z,18.72
2023-07-09T02:53:24.539Z,18.68
2023-07-09T02:55:50.824Z,18.66
2023-07-09T02:58:16.998Z,18.64
2023-07-09T03:00:43.167Z,18.57
2023-07-09T03:03:09.447Z,18.48
2023-07-09T03:05:35.736Z,18.45
2023-07-09T03:08:01.911Z,18.48
2023-07-09T03:10:28.123Z,18.45
2023-07-09T03:12:54.331Z,18.44
2023-07-09T03:15:20.545Z,18.44
2023-07-09T03:17:46.945Z,18.43
2023-07-09T03:20:13.168Z,18.44
2023-07-09T03:22:39.383Z,18.42
2023-07-09T03:25:05.559Z,18.44
2023-07-09T03:27:31.800Z,18.42
2023-07-09T03:29:58.029Z,18.42
2023-07-09T03:32:24.259Z,18.44
2023-07-09T03:34:50.479Z,18.37
2023-07-09T03:37:16.658Z,18.30
2023-07-09T03:39:42.862Z,18.27
2023-07-09T03:42:11.180Z,18.27
2023-07-09T03:44:38.846Z,18.27
2023-07-09T03:47:05.117Z,18.25
2023-07-09T03:49:31.357Z,18.20
2023-07-09T03:51:57.715Z,18.17
2023-07-09T03:54:25.888Z,18.18
2023-07-09T03:56:53.679Z,18.14
2023-07-09T03:59:19.922Z,18.17
2023-07-09T04:01:46.224Z,18.14
2023-07-09T04:04:12.506Z,18.16
2023-07-09T04:06:38.816Z,18.18
2023-07-09T04:09:05.007Z,18.19
2023-07-09T04:11:31.175Z,18.20
2023-07-09T04:13:57.430Z,18.19
2023-07-09T04:16:23.733Z,18.19
2023-07-09T04:18:49.964Z,18.17
2023-07-09T04:21:16.216Z,18.19
2023-07-09T04:23:42.420Z,18.20
2023-07-09T04:26:08.608Z,18.20
2023-07-09T04:28:34.860Z,18.31
2023-07-09T04:31:01.146Z,18.36
2023-07-09T04:33:27.372Z,18.40
2023-07-09T04:35:53.634Z,18.47
2023-07-09T04:38:19.847Z,18.48
2023-07-09T04:40:46.072Z,18.57
2023-07-09T04:43:12.318Z,18.68
2023-07-09T04:45:38.605Z,18.79
2023-07-09T04:48:04.924Z,18.87
2023-07-09T04:50:31.198Z,19.00
2023-07-09T04:52:57.402Z,19.12
2023-07-09T04:55:23.615Z,19.20
2023-07-09T04:57:49.815Z,19.30
2023-07-09T05:00:16.037Z,19.38
2023-07-09T05:02:42.346Z,19.46
2023-07-09T05:05:08.595Z,19.52
2023-07-09T05:07:34.870Z,19.65
2023-07-09T05:10:01.175Z,19.78
2023-07-09T05:12:27.472Z,19.89
2023-07-09T05:14:53.731Z,20.01
2023-07-09T05:17:19.969Z,20.16
2023-07-09T05:19:46.203Z,20.31
2023-07-09T05:22:12.393Z,20.49
2023-07-09T05:24:38.616Z,20.71
2023-07-09T05:27:04.895Z,20.92
2023-07-09T05:29:31.103Z,21.09
2023-07-09T05:31:57.341Z,21.33
2023-07-09T05:34:23.625Z,21.58
2023-07-09T05:36:49.887Z,21.81
2023-07-09T05:39:16.098Z,22.09
2023-07-09T05:41:42.314Z,22.37
2023-07-09T05:44:08.582Z,22.62
2023-07-09T05:46:34.788Z,22.81
2023-07-09T05:49:01.034Z,22.94
2023-07-09T05:51:27.390Z,23.22
2023-07-09T05:53:53.629Z,23.45
2023-07-09T05:56:19.873Z,23.63
2023-07-09T05:58:46.078Z,23.78
2023-07-09T06:01:18.178Z,23.88
2023-07-09T06:03:44.531Z,24.06
2023-07-09T06:06:10.952Z,24.18
2023-07-09T06:08:38.952Z,24.24
2023-07-09T06:11:06.408Z,24.32
2023-07-09T06:13:32.660Z,24.53
2023-07-09T06:15:58.893Z,24.67
2023-07-09T06:18:25.104Z,24.74
2023-07-09T06:20:51.416Z,24.95
2023-07-09T06:23:17.643Z,25.04
2023-07-09T06:25:43.895Z,25.32
2023-07-09T06:28:10.108Z,25.48
2023-07-09T06:30:36.336Z,25.71
2023-07-09T06:33:02.684Z,25.90
2023-07-09T06:35:28.974Z,26.04
2023-07-09T06:37:55.212Z,26.21
2023-07-09T06:40:21.398Z,26.39
2023-07-09T06:42:47.623Z,26.54
2023-07-09T06:45:13.897Z,26.62
2023-07-09T06:47:40.200Z,26.61
2023-07-09T06:50:06.429Z,26.59
2023-07-09T06:52:32.663Z,26.76
2023-07-09T06:54:58.851Z,26.98
2023-07-09T06:57:27.896Z,26.98
2023-07-09T06:59:54.114Z,27.24
2023-07-09T07:02:20.372Z,27.50
2023-07-09T07:04:46.651Z,27.65
2023-07-09T07:07:12.867Z,27.91
2023-07-09T07:09:39.159Z,28.06
2023-07-09T07:12:05.396Z,28.31
2023-07-09T07:14:31.736Z,28.55
2023-07-09T07:16:58.139Z,28.69
2023-07-09T07:19:24.527Z,28.65
2023-07-09T07:21:50.723Z,28.89
2023-07-09T07:24:16.970Z,28.96
2023-07-09T07:26:43.802Z,29.15
2023-07-09T07:29:10.047Z,29.31
2023-07-09T07:31:36.364Z,29.46
2023-07-09T07:34:02.667Z,29.50
2023-07-09T07:36:31.553Z,29.44
2023-07-09T07:38:58.578Z,29.55
2023-07-09T07:41:24.946Z,29.54
2023-07-09T07:43:51.193Z,29.66
2023-07-09T07:46:17.598Z,29.75
2023-07-09T07:48:43.889Z,29.79
2023-07-09T07:51:10.141Z,29.97
2023-07-09T07:53:36.445Z,30.17
2023-07-09T07:56:03.021Z,30.41
2023-07-09T07:58:29.689Z,30.55
2023-07-09T08:00:55.934Z,30.74
2023-07-09T08:03:22.199Z,30.84
2023-07-09T08:05:48.422Z,31.04
2023-07-09T08:08:14.632Z,31.07
2023-07-09T08:10:40.850Z,31.29
2023-07-09T08:13:07.284Z,31.33
2023-07-09T08:15:33.541Z,31.23
2023-07-09T08:18:00.973Z,31.36
2023-07-09T08:20:27.335Z,31.41
2023-07-09T08:22:53.623Z,31.65
2023-07-09T08:25:20.366Z,31.86
2023-07-09T08:27:46.639Z,32.02
2023-07-09T08:30:12.886Z,32.23
2023-07-09T08:32:39.189Z,32.23
2023-07-09T08:35:33.767Z,32.33
2023-07-09T08:37:51.740Z,32.18
2023-07-09T08:40:18.048Z,32.28
2023-07-09T08:42:58.763Z,32.31
2023-07-09T08:45:27.512Z,32.45
2023-07-09T08:47:53.844Z,32.52
2023-07-09T08:50:20.192Z,32.64
2023-07-09T08:52:48.248Z,32.62
2023-07-09T08:55:16.842Z,32.60
2023-07-09T08:57:43.127Z,32.73
2023-07-09T09:00:09.388Z,32.74
2023-07-09T09:02:35.657Z,32.91
2023-07-09T09:05:01.887Z,33.06
2023-07-09T09:07:28.154Z,32.90
2023-07-09T09:10:03.496Z,32.95
2023-07-09T09:12:29.744Z,33.13
2023-07-09T09:14:55.979Z,33.35
2023-07-09T09:17:22.215Z,33.31
2023-07-09T09:19:48.529Z,33.57
2023-07-09T09:22:14.795Z,33.60
2023-07-09T09:24:41.047Z,33.73
2023-07-09T09:27:07.336Z,33.88
2023-07-09T09:29:33.576Z,33.90
2023-07-09T09:31:59.904Z,33.77
2023-07-09T09:34:26.202Z,33.82
2023-07-09T09:36:53.447Z,33.79
2023-07-09T09:39:19.732Z,34.19
2023-07-09T09:41:45.982Z,34.44
2023-07-09T09:44:12.216Z,34.37
2023-07-09T09:46:38.500Z,34.44
2023-07-09T09:49:04.754Z,34.29
2023-07-09T09:51:31.028Z,34.32
2023-07-09T09:53:57.481Z,34.48
2023-07-09T09:56:23.745Z,34.63
2023-07-09T09:58:49.916Z,34.56
2023-07-09T10:01:16.183Z,34.69
2023-07-09T10:03:42.527Z,34.98
2023-07-09T10:06:08.769Z,35.12
2023-07-09T10:08:37.030Z,35.42
2023-07-09T10:11:03.526Z,35.13
2023-07-09T10:13:29.958Z,35.02
2023-07-09T10:15:56.218Z,34.84
2023-07-09T10:18:22.579Z,34.84
2023-07-09T10:20:48.916Z,34.85
2023-07-09T10:23:15.198Z,34.71
2023-07-09T10:25:41.496Z,34.81
2023-07-09T10:28:07.741Z,34.71
2023-07-09T10:30:34.097Z,34.87
2023-07-09T10:33:00.380Z,34.85
2023-07-09T10:35:26.702Z,34.97
2023-07-09T10:37:53.157Z,34.96
2023-07-09T10:40:19.433Z,34.89
2023-07-09T10:42:45.746Z,35.17
2023-07-09T10:45:16.649Z,35.38
2023-07-09T10:47:42.994Z,35.64
2023-07-09T10:50:09.263Z,35.69
2023-07-09T10:52:35.553Z,35.57
2023-07-09T10:55:01.791Z,35.53
2023-07-09T10:57:28.138Z,35.47
2023-07-09T10:59:54.327Z,35.78
2023-07-09T11:02:20.622Z,35.81
2023-07-09T11:04:49.009Z,35.98
2023-07-09T11:07:15.209Z,36.17
2023-07-09T11:09:41.500Z,36.49
2023-07-09T11:12:07.761Z,36.91
2023-07-09T11:14:34.059Z,37.07
2023-07-09T11:17:00.331Z,37.51
2023-07-09T11:19:26.583Z,38.00
2023-07-09T11:21:52.835Z,37.94
2023-07-09T11:24:19.229Z,37.96
2023-07-09T11:26:45.807Z,38.21
2023-07-09T11:29:12.157Z,37.79
2023-07-09T11:31:40.453Z,37.30
2023-07-09T11:34:06.702Z,37.06
2023-07-09T11:36:33.031Z,37.06
2023-07-09T11:38:59.306Z,37.20
2023-07-09T11:41:25.678Z,37.29
2023-07-09T11:43:51.958Z,36.97
2023-07-09T11:46:18.189Z,37.01
2023-07-09T11:48:44.422Z,36.96
2023-07-09T11:51:10.656Z,36.91
2023-07-09T11:53:36.942Z,37.11
2023-07-09T11:56:03.127Z,37.03
2023-07-09T11:58:29.392Z,37.02
2023-07-09T12:00:55.581Z,37.23
2023-07-09T12:03:21.777Z,37.32
2023-07-09T12:05:48.020Z,37.05
2023-07-09T12:08:14.194Z,37.17
2023-07-09T12:10:40.486Z,37.38
2023-07-09T12:13:06.723Z,37.55
2023-07-09T12:15:32.987Z,37.19
2023-07-09T12:17:59.229Z,37.39
2023-07-09T12:20:25.471Z,37.39
2023-07-09T12:22:51.776Z,37.45
2023-07-09T12:25:18.039Z,37.59
2023-07-09T12:27:44.304Z,37.66
2023-07-09T12:30:12.630Z,37.59
2023-07-09T12:32:38.862Z,37.69
2023-07-09T12:35:05.130Z,37.78
2023-07-09T12:37:31.423Z,38.09
2023-07-09T12:39:57.683Z,38.06
2023-07-09T12:42:23.941Z,37.85
2023-07-09T12:44:50.302Z,37.86
2023-07-09T12:47:16.575Z,37.75
2023-07-09T12:49:42.777Z,38.04
2023-07-09T12:52:08.988Z,37.92
2023-07-09T12:54:35.250Z,38.20
2023-07-09T12:57:01.561Z,38.44
2023-07-09T12:59:27.794Z,38.47
2023-07-09T13:01:54.119Z,38.31
2023-07-09T13:04:21.145Z,38.23
2023-07-09T13:06:48.230Z,38.15
2023-07-09T13:09:14.442Z,37.91
2023-07-09T13:11:40.684Z,37.87
2023-07-09T13:14:07.008Z,37.96
2023-07-09T13:16:33.268Z,38.17
2023-07-09T13:18:59.531Z,38.35
2023-07-09T13:21:25.742Z,38.43
2023-07-09T13:23:51.954Z,38.40
2023-07-09T13:26:18.182Z,38.24
2023-07-09T13:28:44.382Z,38.28
2023-07-09T13:31:10.600Z,38.41
2023-07-09T13:33:36.821Z,38.46
2023-07-09T13:36:03.037Z,38.54
2023-07-09T13:38:29.211Z,38.78
2023-07-09T13:40:56.085Z,38.85
2023-07-09T13:43:25.065Z,38.87
2023-07-09T13:45:51.266Z,38.63
2023-07-09T13:48:17.616Z,38.44
2023-07-09T13:50:43.956Z,38.10
2023-07-09T13:53:10.225Z,38.07
2023-07-09T13:55:36.436Z,38.03
2023-07-09T13:58:02.759Z,38.06
2023-07-09T14:00:35.107Z,38.38
2023-07-09T14:03:01.430Z,38.32
2023-07-09T14:05:27.743Z,38.38
2023-07-09T14:07:53.974Z,38.45
2023-07-09T14:10:20.218Z,38.70
2023-07-09T14:12:46.430Z,38.97
2023-07-09T14:15:12.608Z,38.89
2023-07-09T14:17:38.943Z,38.91
2023-07-09T14:20:05.295Z,38.54
2023-07-09T14:22:31.543Z,38.45
2023-07-09T14:24:57.895Z,38.46
2023-07-09T14:27:24.102Z,38.42
2023-07-09T14:29:50.268Z,38.41
2023-07-09T14:32:16.540Z,38.23
2023-07-09T14:34:42.817Z,38.26
2023-07-09T14:37:09.011Z,38.48
2023-07-09T14:39:35.210Z,38.96
2023-07-09T14:42:01.399Z,39.04
2023-07-09T14:44:27.637Z,39.22
2023-07-09T14:46:54.059Z,39.28
2023-07-09T14:49:20.411Z,39.47
2023-07-09T14:51:46.647Z,39.49
2023-07-09T14:54:12.861Z,39.30
2023-07-09T14:56:39.064Z,38.75
2023-07-09T14:59:05.334Z,38.50
2023-07-09T15:01:31.657Z,38.42
2023-07-09T15:03:57.908Z,38.46
2023-07-09T15:06:24.203Z,38.61
2023-07-09T15:08:50.440Z,38.83
2023-07-09T15:11:16.639Z,38.67
2023-07-09T15:13:42.901Z,38.48
2023-07-09T15:16:09.366Z,38.03
2023-07-09T15:18:35.638Z,37.69
2023-07-09T15:21:02.036Z,37.52
2023-07-09T15:23:28.374Z,37.56
2023-07-09T15:25:54.592Z,37.91
2023-07-09T15:28:20.770Z,38.24
2023-07-09T15:30:46.980Z,38.19
2023-07-09T15:33:13.218Z,38.35
2023-07-09T15:35:39.454Z,38.28
2023-07-09T15:38:05.670Z,38.69
2023-07-09T15:40:31.874Z,38.95
2023-07-09T15:42:58.152Z,39.19
2023-07-09T15:45:24.372Z,39.19
2023-07-09T15:47:50.724Z,39.12
2023-07-09T15:50:17.087Z,39.03
2023-07-09T15:52:43.336Z,38.68
2023-07-09T15:55:09.561Z,38.43
2023-07-09T15:57:42.100Z,38.36
2023-07-09T16:00:09.124Z,37.76
2023-07-09T16:02:35.489Z,37.41
2023-07-09T16:05:01.902Z,36.85
2023-07-09T16:07:28.202Z,36.56
2023-07-09T16:09:54.442Z,36.40
2023-07-09T16:12:20.718Z,36.26
2023-07-09T16:14:49.025Z,36.35
2023-07-09T16:17:15.281Z,36.15
2023-07-09T16:19:41.510Z,36.10
2023-07-09T16:22:07.742Z,36.16
2023-07-09T16:24:34.028Z,36.03
2023-07-09T16:27:00.309Z,35.85
2023-07-09T16:29:41.288Z,35.84
2023-07-09T16:32:09.425Z,35.66
2023-07-09T16:34:35.675Z,35.58
2023-07-09T16:37:01.900Z,35.41
2023-07-09T16:39:33.033Z,35.52
2023-07-09T16:42:01.220Z,35.44
2023-07-09T16:44:28.517Z,35.37
2023-07-09T16:47:00.900Z,35.28
2023-07-09T16:49:27.120Z,35.19
2023-07-09T16:52:04.851Z,35.19
2023-07-09T16:54:31.107Z,35.25
2023-07-09T16:56:57.302Z,35.19
2023-07-09T16:59:23.556Z,34.98
2023-07-09T17:01:49.883Z,34.85
2023-07-09T17:04:16.090Z,34.74
2023-07-09T17:06:42.333Z,34.65
2023-07-09T17:09:08.526Z,34.64
2023-07-09T17:11:36.074Z,34.71
2023-07-09T17:14:02.332Z,34.79
2023-07-09T17:16:28.610Z,34.68
2023-07-09T17:18:57.683Z,34.65
2023-07-09T17:21:24.427Z,34.62
2023-07-09T17:23:50.648Z,34.47
2023-07-09T17:26:18.889Z,34.33
2023-07-09T17:28:45.132Z,34.29
2023-07-09T17:31:11.408Z,34.27
2023-07-09T17:33:37.623Z,34.19
2023-07-09T17:36:03.870Z,34.17
2023-07-09T17:38:30.072Z,34.32
2023-07-09T17:40:56.265Z,34.33
2023-07-09T17:43:22.482Z,34.37
2023-07-09T17:45:48.782Z,34.39
2023-07-09T17:48:15.038Z,34.37
2023-07-09T17:50:41.252Z,34.39
2023-07-09T17:53:07.885Z,34.41
2023-07-09T17:55:34.124Z,34.43
2023-07-09T17:58:00.328Z,34.30
2023-07-09T18:00:26.568Z,34.26
2023-07-09T18:02:52.969Z,34.20
2023-07-09T18:05:19.379Z,34.00
2023-07-09T18:07:45.771Z,33.81
2023-07-09T18:10:12.867Z,33.78
2023-07-09T18:12:41.084Z,33.64
2023-07-09T18:15:07.307Z,33.42
2023-07-09T18:17:33.617Z,33.31
2023-07-09T18:19:59.903Z,33.18
2023-07-09T18:22:26.183Z,33.02
2023-07-09T18:24:52.476Z,32.88
2023-07-09T18:27:19.761Z,32.74
2023-07-09T18:29:46.005Z,32.59
2023-07-09T18:32:12.398Z,32.49
2023-07-09T18:34:38.628Z,32.33
2023-07-09T18:37:04.925Z,32.19
2023-07-09T18:39:31.194Z,32.13
2023-07-09T18:41:57.538Z,32.00
2023-07-09T18:44:23.800Z,31.91
2023-07-09T18:46:50.024Z,31.78
2023-07-09T18:49:16.310Z,31.66
2023-07-09T18:51:42.652Z,31.65
2023-07-09T18:54:08.866Z,31.74
2023-07-09T18:56:35.105Z,31.77
2023-07-09T18:59:01.319Z,31.78
2023-07-09T19:01:27.598Z,31.72
2023-07-09T19:03:54.036Z,31.65
2023-07-09T19:06:20.336Z,31.55
2023-07-09T19:08:46.714Z,31.44
2023-07-09T19:11:13.182Z,31.31
2023-07-09T19:13:39.444Z,31.22
2023-07-09T19:16:05.857Z,31.15
2023-07-09T19:18:32.161Z,31.07
2023-07-09T19:21:01.032Z,30.98
2023-07-09T19:23:27.280Z,30.87
2023-07-09T19:25:53.470Z,30.77
2023-07-09T19:28:19.720Z,30.64
2023-07-09T19:30:45.932Z,30.55
2023-07-09T19:33:12.188Z,30.47
2023-07-09T19:35:38.381Z,30.31
2023-07-09T19:38:04.610Z,30.20
2023-07-09T19:40:30.836Z,30.08
2023-07-09T19:42:57.059Z,29.92
2023-07-09T19:45:23.315Z,29.79
2023-07-09T19:47:49.636Z,29.72
2023-07-09T19:50:16.092Z,29.66
2023-07-09T19:52:42.430Z,29.60
2023-07-09T19:55:08.734Z,29.49
2023-07-09T19:57:35.060Z,29.44
2023-07-09T20:00:01.409Z,29.36
2023-07-09T20:02:27.802Z,29.27
2023-07-09T20:04:54.233Z,29.20
2023-07-09T20:07:20.445Z,29.11
2023-07-09T20:09:46.752Z,29.01
2023-07-09T20:12:13.103Z,28.94
2023-07-09T20:14:39.368Z,28.81
2023-07-09T20:17:05.632Z,28.69
2023-07-09T20:19:32.448Z,28.59
2023-07-09T20:21:58.688Z,28.43
2023-07-09T20:24:24.915Z,28.35
2023-07-09T20:26:51.112Z,28.25
2023-07-09T20:29:18.712Z,28.16
2023-07-09T20:31:44.937Z,27.99
2023-07-09T20:34:11.410Z,27.79
2023-07-09T20:36:37.725Z,27.73
2023-07-09T20:39:03.941Z,27.67
2023-07-09T20:41:30.185Z,27.53
2023-07-09T20:43:56.443Z,27.45
2023-07-09T20:46:22.680Z,27.32
2023-07-09T20:48:48.942Z,27.28
2023-07-09T20:51:15.130Z,27.25
2023-07-09T20:53:41.369Z,27.17
2023-07-09T20:56:07.723Z,27.11
2023-07-09T20:58:34.005Z,27.09
2023-07-09T21:01:00.220Z,27.04
2023-07-09T21:03:26.536Z,27.04
2023-07-09T21:05:52.820Z,26.99
2023-07-09T21:08:18.995Z,27.03
2023-07-09T21:10:45.233Z,26.98
2023-07-09T21:13:11.455Z,26.92
2023-07-09T21:15:37.636Z,26.81
2023-07-09T21:18:03.891Z,26.77
2023-07-09T21:20:30.120Z,26.71
2023-07-09T21:22:56.392Z,26.66
2023-07-09T21:25:22.647Z,26.62
2023-07-09T21:27:48.822Z,26.56
2023-07-09T21:30:15.030Z,26.44
2023-07-09T21:32:41.228Z,26.36
2023-07-09T21:35:07.486Z,26.29
2023-07-09T21:37:35.285Z,26.20
2023-07-09T21:40:01.785Z,26.14
2023-07-09T21:42:28.020Z,26.10
2023-07-09T21:44:54.269Z,26.06
2023-07-09T21:47:20.502Z,25.98
2023-07-09T21:49:46.735Z,25.89
2023-07-09T21:52:12.957Z,25.80
2023-07-09T21:55:06.759Z,25.77
2023-07-09T21:57:25.326Z,25.68
2023-07-09T21:59:51.566Z,25.66
2023-07-09T22:02:17.757Z,25.63
2023-07-09T22:04:43.960Z,25.63
2023-07-09T22:07:10.160Z,25.57
2023-07-09T22:09:36.362Z,25.45
2023-07-09T22:12:02.630Z,25.45
2023-07-09T22:14:28.840Z,25.39
2023-07-09T22:16:55.156Z,25.32
2023-07-09T22:19:26.086Z,25.17
2023-07-09T22:21:55.269Z,25.13
2023-07-09T22:24:21.447Z,25.14
2023-07-09T22:26:47.660Z,25.11
2023-07-09T22:29:13.900Z,25.12
2023-07-09T22:31:40.110Z,25.13
2023-07-09T22:34:06.352Z,25.12
2023-07-09T22:36:32.588Z,25.10
2023-07-09T22:38:58.778Z,25.12
2023-07-09T22:41:24.993Z,25.20
2023-07-09T22:43:51.260Z,25.31
2023-07-09T22:46:17.515Z,25.38
2023-07-09T22:48:43.703Z,25.45
2023-07-09T22:51:09.897Z,25.52
2023-07-09T22:53:36.127Z,25.58
2023-07-09T22:56:02.636Z,25.62
2023-07-09T22:58:29.078Z,25.60
2023-07-09T23:00:55.289Z,25.62
2023-07-09T23:03:21.648Z,25.66
2023-07-09T23:05:47.981Z,25.65
2023-07-09T23:08:14.188Z,25.61
2023-07-09T23:10:40.462Z,25.60
2023-07-09T23:13:06.625Z,25.59
2023-07-09T23:15:32.863Z,25.52
2023-07-09T23:17:59.193Z,25.49
2023-07-09T23:20:25.402Z,25.48
2023-07-09T23:22:51.617Z,25.38
2023-07-09T23:25:17.842Z,25.34
2023-07-09T23:27:44.048Z,25.28
2023-07-09T23:30:10.239Z,25.30
2023-07-09T23:32:36.493Z,25.37
2023-07-09T23:35:02.716Z,25.39
2023-07-09T23:37:28.954Z,25.50
2023-07-09T23:39:55.158Z,25.59
2023-07-09T23:42:21.355Z,25.57
2023-07-09T23:44:47.552Z,25.55
2023-07-09T23:47:13.929Z,25.56
2023-07-09T23:49:40.213Z,25.54
2023-07-09T23:52:06.413Z,25.52
2023-07-09T23:54:32.609Z,25.48
2023-07-09T23:56:58.842Z,25.45
2023-07-09T23:59:25.072Z,25.38
